»·PEaware :: N8533C KFUL-KCRQ

N8533C :: KFUL-KCRQ

FLIGHT INFORMATION

Flight Status: Arrived
Operator: Privately registered:
United States
More flights under this callsign
Pilot: Danny D. (17146)
Aircraft: CESSNA 172 SKYHAWK
(C172)
More flights by this aircraft type
Origin: KFUL Fullerton Mun
United States
Destination: KCRQ McClellan-Palomar
United States
More flights between these airports :: More routes between these airports
Route: +SLI V64 V363 DANAH V23 OCN
File this flight plan on PilotEdge
Remarks:
Altitude:
(Current/Filed)
5,000ft
Speed:
(Current/Filed)
100kts
Departed: 12-Jan-19 06:59 PM
Arrived: 12-Jan-19 07:41 PM
Distance/Time
Traveled:
57nm/0:42
Distance/Time
To Go:
Arrived

Flight Plot

Page will automatically refresh every two minutes.


Map Options




Map Legend


Flown Route
Filed Route
Departure Airport
Arrival Airport
Navaid (VOR, NDB)
Fix

Horizontal Profiles

Position Reports

Time Latitude Longitude Heading Altitude Ground
Speed
12-Jan-19 18:27 33.873669 -117.979322 346 99ft 0kts
12-Jan-19 18:28 33.873669 -117.979322 346 99ft 0kts
12-Jan-19 18:29 33.873669 -117.979322 346 99ft 0kts
12-Jan-19 18:30 33.873669 -117.979322 346 99ft 0kts
12-Jan-19 18:31 33.873669 -117.979322 346 99ft 0kts
12-Jan-19 18:32 33.873669 -117.979322 346 99ft 0kts
12-Jan-19 18:33 33.873669 -117.979322 346 99ft 0kts
12-Jan-19 18:34 33.873669 -117.979322 346 99ft 0kts
12-Jan-19 18:35 33.873669 -117.979322 346 99ft 0kts
12-Jan-19 18:36 33.873669 -117.979322 346 99ft 0kts
12-Jan-19 18:37 33.873669 -117.979322 346 99ft 0kts
12-Jan-19 18:38 33.873669 -117.979322 346 99ft 0kts
12-Jan-19 18:39 33.873669 -117.979322 346 99ft 0kts
12-Jan-19 18:40 33.873669 -117.979322 346 99ft 0kts
12-Jan-19 18:41 33.873669 -117.979322 346 99ft 0kts
12-Jan-19 18:42 33.873670 -117.979322 346 99ft 0kts
12-Jan-19 18:43 33.873670 -117.979323 346 99ft 0kts
12-Jan-19 18:44 33.873671 -117.979323 346 99ft 0kts
12-Jan-19 18:45 33.873434 -117.979256 346 99ft 0kts
12-Jan-19 18:46 33.873436 -117.979257 346 99ft 0kts
12-Jan-19 18:47 33.873437 -117.979257 346 99ft 0kts
12-Jan-19 18:48 33.873439 -117.979257 346 99ft 0kts
12-Jan-19 18:49 33.873440 -117.979258 346 99ft 0kts
12-Jan-19 18:50 33.873441 -117.979258 346 99ft 0kts
12-Jan-19 18:51 33.873443 -117.979259 346 99ft 0kts
12-Jan-19 18:52 33.873444 -117.979259 346 99ft 0kts
12-Jan-19 18:53 33.873446 -117.979259 346 99ft 0kts
12-Jan-19 18:54 33.873375 -117.978617 79 99ft 5kts
12-Jan-19 18:55 33.872723 -117.979668 258 99ft 12kts
12-Jan-19 18:56 33.871726 -117.984598 234 99ft 6kts
12-Jan-19 18:57 33.871497 -117.984696 170 99ft 0kts
12-Jan-19 18:58 33.873269 -117.973947 79 229ft 77kts
12-Jan-19 18:59 33.869775 -117.951318 133 1060ft 68kts
12-Jan-19 19:00 33.856143 -117.930381 133 1691ft 82kts
12-Jan-19 19:01 33.836104 -117.905369 133 1695ft 116kts
12-Jan-19 19:02 33.816524 -117.880459 132 2267ft 93kts
12-Jan-19 19:03 33.800578 -117.857920 127 2918ft 85kts
12-Jan-19 19:04 33.787797 -117.835298 118 3571ft 78kts
12-Jan-19 19:05 33.778777 -117.811250 110 4134ft 85kts
12-Jan-19 19:06 33.759357 -117.791612 137 4586ft 94kts
12-Jan-19 19:08 33.736739 -117.770402 137 4698ft 112kts
12-Jan-19 19:09 33.711821 -117.746769 137 4690ft 115kts
12-Jan-19 19:10 33.681001 -117.734802 157 4690ft 117kts
12-Jan-19 19:11 33.648903 -117.726783 165 4690ft 118kts
12-Jan-19 19:12 33.615904 -117.722569 171 4689ft 119kts
12-Jan-19 19:13 33.583403 -117.716048 160 4692ft 117kts
12-Jan-19 19:14 33.551094 -117.708334 170 4687ft 119kts
12-Jan-19 19:15 33.518254 -117.704043 179 4703ft 119kts
12-Jan-19 19:16 33.487741 -117.693479 126 4645ft 115kts
12-Jan-19 19:17 33.463679 -117.669728 143 4680ft 118kts
12-Jan-19 19:18 33.439541 -117.645328 134 4688ft 115kts
12-Jan-19 19:19 33.416275 -117.619582 130 4720ft 113kts
12-Jan-19 19:20 33.393047 -117.594113 132 4738ft 111kts
12-Jan-19 19:21 33.370797 -117.567636 133 4745ft 112kts
12-Jan-19 19:22 33.347327 -117.541855 128 4709ft 112kts
12-Jan-19 19:23 33.324862 -117.514745 133 4653ft 116kts
12-Jan-19 19:23 33.305083 -117.494199 130 4642ft 119kts
12-Jan-19 19:25 33.280208 -117.461711 133 4701ft 112kts
12-Jan-19 19:26 33.256959 -117.436450 128 4704ft 114kts
12-Jan-19 19:27 33.233091 -117.411552 148 4764ft 111kts
12-Jan-19 19:28 33.211195 -117.430018 283 4699ft 116kts
12-Jan-19 19:29 33.215601 -117.466649 283 4156ft 111kts
12-Jan-19 19:30 33.235513 -117.485542 17 3491ft 107kts
12-Jan-19 19:30 33.249630 -117.462790 85 2970ft 109kts
12-Jan-19 19:31 33.243040 -117.429032 115 2565ft 100kts
12-Jan-19 19:32 33.227529 -117.404030 129 2471ft 86kts
12-Jan-19 19:33 33.210908 -117.381408 131 1726ft 90kts
12-Jan-19 19:34 33.193668 -117.359667 141 1072ft 89kts
12-Jan-19 19:35 33.183050 -117.349053 129 886ft 75kts
12-Jan-19 19:36 33.171023 -117.327305 128 929ft 82kts
12-Jan-19 19:37 33.155313 -117.305260 127 813ft 90kts
12-Jan-19 19:38 33.150471 -117.278416 88 841ft 84kts
12-Jan-19 19:39 33.136624 -117.263048 183 638ft 68kts
12-Jan-19 19:40 33.128809 -117.276581 254 334ft 25kts
12-Jan-19 19:41 33.127669 -117.279964 204 334ft 0kts
12-Jan-19 19:42 33.127668 -117.279964 204 334ft 0kts
12-Jan-19 19:43 33.127668 -117.279964 204 334ft 0kts
12-Jan-19 19:44 33.127535 -117.277974 75 334ft 21kts

Navigation Log

Ident Type
Flight plan parsing failed, navigation log unavailable